Time;durP1;ratioP1;P1;durP2;ratioP2;P2;SDS_P1;SDS_P2;PMS_P1;PMS_P2;Temp;Humidity;BMP_temperature;BMP_pressure;BME280_temperature;BME280_humidity;BME280_pressure;Samples;Min_cycle;Max_cycle;Signal;HPM_P1;HPM_P2
2024/02/19 00:00:43;;;;;;;28.00;9.70;;;10.00;99.90;;;;;;5050849;28;20377;-75
2024/02/19 00:03:09;;;;;;;24.87;10.70;;;10.00;99.90;;;;;;5050470;28;20440;-76
2024/02/19 00:05:34;;;;;;;25.53;9.53;;;10.00;99.90;;;;;;5050617;28;20389;-76
2024/02/19 00:08:00;;;;;;;26.23;10.60;;;10.00;99.90;;;;;;5050548;28;20381;-76
2024/02/19 00:10:25;;;;;;;33.80;10.97;;;10.00;99.90;;;;;;5050528;28;20928;-75
2024/02/19 00:12:51;;;;;;;19.17;9.77;;;10.00;99.90;;;;;;5050744;28;20394;-76
2024/02/19 00:15:17;;;;;;;22.65;10.30;;;10.00;99.90;;;;;;5052619;28;20567;-75
2024/02/19 00:17:42;;;;;;;30.17;11.25;;;9.90;99.90;;;;;;5054727;28;20392;-75
2024/02/19 00:20:08;;;;;;;26.33;9.77;;;10.00;99.90;;;;;;5054115;28;20381;-75
2024/02/19 00:22:34;;;;;;;22.35;9.52;;;10.00;99.90;;;;;;5055016;28;20388;-75
2024/02/19 00:25:00;;;;;;;19.90;8.03;;;9.90;99.90;;;;;;5054690;28;20892;-76
2024/02/19 00:27:25;;;;;;;24.73;9.83;;;9.80;99.90;;;;;;5055085;28;20856;-77
2024/02/19 00:29:51;;;;;;;23.55;9.50;;;9.80;99.90;;;;;;5055569;28;20377;-76
2024/02/19 00:32:17;;;;;;;25.85;9.65;;;9.80;99.90;;;;;;5053975;28;20864;-77
2024/02/19 00:34:43;;;;;;;13.90;6.47;;;9.80;99.90;;;;;;5053948;28;20401;-76
2024/02/19 00:37:11;;;;;;;17.35;6.80;;;9.70;99.90;;;;;;5054037;28;20389;-76
2024/02/19 00:39:37;;;;;;;18.88;7.93;;;9.60;99.90;;;;;;5053843;28;20381;-77
2024/02/19 00:42:03;;;;;;;22.00;8.70;;;9.60;99.90;;;;;;5053382;28;20435;-75
2024/02/19 00:44:29;;;;;;;18.47;7.17;;;9.60;99.90;;;;;;5053727;28;20389;-75
2024/02/19 00:46:54;;;;;;;22.47;8.60;;;9.60;99.90;;;;;;5053502;28;20413;-76
2024/02/19 00:49:20;;;;;;;21.30;7.80;;;9.60;99.90;;;;;;5053638;28;20389;-76
2024/02/19 00:51:45;;;;;;;24.80;8.53;;;9.60;99.90;;;;;;5053788;28;20385;-77
2024/02/19 00:54:11;;;;;;;15.13;7.43;;;9.60;99.90;;;;;;5053086;28;20397;-76
2024/02/19 00:56:37;;;;;;;23.07;7.93;;;9.50;99.90;;;;;;5053827;28;20384;-76
2024/02/19 00:59:03;;;;;;;19.20;7.95;;;9.50;99.90;;;;;;5053595;28;20490;-76
2024/02/19 01:01:30;;;;;;;22.60;8.30;;;9.50;99.90;;;;;;5053517;28;20451;-74
2024/02/19 01:03:56;;;;;;;26.08;9.45;;;9.40;99.90;;;;;;5053134;28;20377;-76
2024/02/19 01:06:23;;;;;;;17.25;6.90;;;9.40;99.90;;;;;;5053386;28;20385;-75
2024/02/19 01:08:49;;;;;;;19.25;5.97;;;9.40;99.90;;;;;;5053739;28;20413;-77
2024/02/19 01:11:15;;;;;;;22.57;7.13;;;9.30;99.90;;;;;;5053627;28;20385;-76
2024/02/19 01:13:42;;;;;;;19.38;6.95;;;9.40;99.90;;;;;;5053549;28;20385;-74
2024/02/19 01:16:11;;;;;;;27.40;6.63;;;9.40;99.90;;;;;;5053037;28;20428;-75
2024/02/19 01:18:36;;;;;;;18.08;5.47;;;9.40;99.90;;;;;;5053072;28;20385;-76
2024/02/19 01:21:03;;;;;;;13.03;4.90;;;9.40;99.90;;;;;;5052688;28;20884;-75
2024/02/19 01:23:28;;;;;;;18.85;4.60;;;9.40;98.90;;;;;;5052824;28;20412;-75
2024/02/19 01:25:55;;;;;;;23.10;4.90;;;9.40;95.70;;;;;;5051765;28;20381;-76
2024/02/19 01:28:21;;;;;;;14.63;3.93;;;9.40;92.90;;;;;;5052905;28;20424;-76
2024/02/19 01:30:47;;;;;;;9.73;2.63;;;9.40;78.90;;;;;;5053081;28;20783;-77
2024/02/19 01:33:12;;;;;;;15.05;3.05;;;9.40;73.70;;;;;;5053287;28;20388;-76
2024/02/19 01:35:38;;;;;;;12.40;2.60;;;9.50;77.50;;;;;;5053292;28;20490;-77
2024/02/19 01:38:04;;;;;;;19.25;2.83;;;9.40;75.90;;;;;;5053576;28;20392;-78
2024/02/19 01:40:29;;;;;;;16.05;2.95;;;9.50;75.90;;;;;;5051683;28;20947;-76
2024/02/19 01:43:02;;;;;;;19.13;3.40;;;9.50;74.70;;;;;;5053088;28;20385;-77
2024/02/19 01:45:27;;;;;;;14.52;2.60;;;9.50;75.30;;;;;;5052508;28;20385;-76
2024/02/19 01:47:54;;;;;;;15.73;3.22;;;9.50;74.60;;;;;;5052729;28;20393;-76
2024/02/19 01:50:20;;;;;;;18.30;3.08;;;9.50;75.70;;;;;;5052237;28;20412;-77
2024/02/19 01:52:47;;;;;;;18.67;3.60;;;9.50;77.10;;;;;;5055230;28;20393;-75
2024/02/19 01:55:13;;;;;;;16.95;3.30;;;9.50;78.00;;;;;;5069265;28;20428;-75
2024/02/19 01:57:42;;;;;;;22.20;3.95;;;9.50;80.00;;;;;;5056908;28;20417;-75
2024/02/19 02:00:08;;;;;;;19.60;4.20;;;9.50;81.40;;;;;;5052170;28;20740;-75
2024/02/19 02:02:34;;;;;;;19.13;3.80;;;9.50;82.70;;;;;;5054600;28;20404;-76
2024/02/19 02:05:01;;;;;;;18.00;3.50;;;9.50;84.00;;;;;;5054028;28;20381;-76
2024/02/19 02:07:28;;;;;;;15.85;3.40;;;9.50;84.60;;;;;;5053984;28;20421;-76
2024/02/19 02:09:54;;;;;;;22.38;4.03;;;9.50;84.10;;;;;;5053690;28;20385;-76
2024/02/19 02:12:20;;;;;;;26.00;5.30;;;9.50;84.70;;;;;;5052121;28;20816;-78
2024/02/19 02:14:46;;;;;;;18.40;3.90;;;9.50;83.20;;;;;;5052009;28;20522;-76
2024/02/19 02:17:11;;;;;;;20.60;3.95;;;9.50;84.00;;;;;;5052233;28;20378;-76
2024/02/19 02:19:41;;;;;;;15.40;3.97;;;9.50;83.70;;;;;;5052256;28;20405;-77
2024/02/19 02:22:07;;;;;;;20.80;5.00;;;9.50;82.90;;;;;;5053049;28;20443;-77
2024/02/19 02:24:32;;;;;;;20.05;4.30;;;9.50;84.40;;;;;;5053301;28;20417;-77
2024/02/19 02:26:58;;;;;;;19.20;4.00;;;9.50;84.60;;;;;;5055557;28;20397;-78
2024/02/19 02:29:24;;;;;;;21.63;4.03;;;9.60;83.90;;;;;;5053172;28;20465;-77
2024/02/19 02:31:49;;;;;;;27.75;5.20;;;9.50;84.40;;;;;;5053791;28;20381;-77
2024/02/19 02:34:15;;;;;;;20.92;5.40;;;9.50;87.50;;;;;;5053453;28;20396;-77
2024/02/19 02:36:41;;;;;;;21.73;4.90;;;9.50;87.40;;;;;;5054281;28;20397;-77
2024/02/19 02:39:07;;;;;;;18.73;5.40;;;9.60;85.50;;;;;;5056400;28;20396;-77
2024/02/19 02:41:32;;;;;;;20.45;4.63;;;9.60;86.90;;;;;;5058283;28;20480;-78
2024/02/19 02:43:59;;;;;;;24.05;5.60;;;9.50;87.40;;;;;;5057538;28;20386;-76
2024/02/19 02:46:24;;;;;;;20.02;4.47;;;9.50;88.70;;;;;;5055682;28;20959;-77
2024/02/19 02:48:50;;;;;;;18.80;4.20;;;9.50;87.90;;;;;;5055930;28;20440;-77
2024/02/19 02:51:15;;;;;;;21.90;5.20;;;9.40;89.20;;;;;;5054954;28;20389;-77
2024/02/19 02:53:41;;;;;;;24.05;5.13;;;9.30;92.10;;;;;;5052617;28;20398;-76
2024/02/19 02:56:06;;;;;;;24.52;5.38;;;9.20;93.10;;;;;;5052176;28;20401;-78
2024/02/19 02:58:33;;;;;;;24.40;4.88;;;9.20;91.60;;;;;;5055585;28;20389;-78
2024/02/19 03:01:00;;;;;;;20.95;6.30;;;9.20;89.70;;;;;;5056736;28;20439;-78
2024/02/19 03:03:27;;;;;;;21.75;5.50;;;9.30;91.00;;;;;;5052872;28;20389;-77
2024/02/19 03:05:52;;;;;;;18.20;4.25;;;9.30;90.10;;;;;;5054379;28;20397;-77
2024/02/19 03:08:18;;;;;;;17.50;4.53;;;9.30;87.00;;;;;;5054330;28;20439;-76
2024/02/19 03:10:44;;;;;;;22.73;4.82;;;9.30;86.90;;;;;;5054985;28;20479;-76
2024/02/19 03:13:09;;;;;;;21.70;4.93;;;9.30;86.20;;;;;;5052844;28;20381;-78
2024/02/19 03:15:35;;;;;;;19.83;4.50;;;9.30;87.10;;;;;;5055190;28;20787;-78
2024/02/19 03:18:01;;;;;;;21.25;4.90;;;9.40;85.20;;;;;;5064700;28;20393;-76
2024/02/19 03:20:28;;;;;;;24.10;4.57;;;9.40;87.00;;;;;;5058224;28;22692;-77
2024/02/19 03:22:54;;;;;;;24.35;4.30;;;9.40;84.90;;;;;;5051928;28;20444;-77
2024/02/19 03:25:19;;;;;;;21.20;4.20;;;9.40;86.10;;;;;;5052828;28;20387;-78
2024/02/19 03:27:46;;;;;;;23.02;4.65;;;9.40;86.10;;;;;;5056442;28;20868;-77
2024/02/19 03:30:12;;;;;;;21.08;4.60;;;9.40;85.00;;;;;;5057392;28;20424;-77
2024/02/19 03:32:38;;;;;;;15.00;3.67;;;9.40;86.80;;;;;;5061616;28;20748;-77
2024/02/19 03:35:03;;;;;;;20.73;4.30;;;9.40;82.10;;;;;;5053800;28;20402;-76
2024/02/19 03:37:29;;;;;;;18.20;3.90;;;9.50;82.00;;;;;;5053879;28;20377;-78
2024/02/19 03:39:54;;;;;;;21.70;3.73;;;9.50;83.50;;;;;;5063529;28;20416;-77
2024/02/19 03:42:20;;;;;;;16.87;4.13;;;9.50;80.80;;;;;;5055708;28;20472;-77
2024/02/19 03:44:46;;;;;;;21.70;4.67;;;9.50;80.10;;;;;;5053039;28;20388;-77
2024/02/19 03:47:12;;;;;;;21.88;3.60;;;9.50;80.20;;;;;;5055792;28;20377;-78
2024/02/19 03:49:38;;;;;;;16.83;4.47;;;9.50;78.70;;;;;;5063379;28;20381;-77
2024/02/19 03:52:04;;;;;;;24.58;4.03;;;9.50;78.50;;;;;;5066082;28;20381;-77
2024/02/19 03:54:30;;;;;;;19.83;4.28;;;9.50;77.70;;;;;;5061753;28;20926;-77
2024/02/19 03:56:55;;;;;;;25.55;4.90;;;9.50;80.00;;;;;;5062992;28;20404;-77
2024/02/19 03:59:22;;;;;;;19.35;3.92;;;9.50;79.50;;;;;;5060476;28;20390;-76
2024/02/19 04:01:48;;;;;;;23.80;4.38;;;9.50;80.50;;;;;;5063494;28;20385;-78
2024/02/19 04:04:16;;;;;;;21.08;3.67;;;9.50;81.20;;;;;;5058692;28;20390;-76
2024/02/19 04:06:41;;;;;;;16.73;3.88;;;9.50;80.50;;;;;;5065547;28;20891;-77
2024/02/19 04:09:08;;;;;;;23.67;4.90;;;9.50;82.20;;;;;;5063237;28;20396;-76
2024/02/19 04:11:34;;;;;;;21.92;3.35;;;9.50;81.10;;;;;;5059856;28;20464;-76
2024/02/19 04:14:00;;;;;;;22.65;3.83;;;9.70;78.10;;;;;;5059427;28;20421;-76
2024/02/19 04:16:25;;;;;;;15.82;3.95;;;9.70;76.90;;;;;;5059986;28;20884;-78
2024/02/19 04:18:51;;;;;;;21.52;4.30;;;9.80;76.10;;;;;;5056151;28;20799;-76
2024/02/19 04:21:16;;;;;;;17.70;4.50;;;9.70;76.30;;;;;;5058697;28;20757;-78
2024/02/19 04:23:42;;;;;;;21.07;4.70;;;9.80;76.30;;;;;;5058404;28;20787;-77
2024/02/19 04:26:07;;;;;;;19.93;3.80;;;9.80;75.80;;;;;;5058127;28;20385;-76
2024/02/19 04:28:33;;;;;;;15.50;3.70;;;9.80;76.00;;;;;;5055757;28;20815;-77
2024/02/19 04:30:58;;;;;;;22.30;4.50;;;9.80;76.60;;;;;;5056493;28;20423;-78
2024/02/19 04:33:24;;;;;;;29.17;3.93;;;9.70;77.70;;;;;;5056839;28;20471;-77
2024/02/19 04:35:49;;;;;;;18.10;4.03;;;9.70;78.90;;;;;;5055981;28;20837;-75
2024/02/19 04:38:15;;;;;;;16.10;3.50;;;9.70;79.40;;;;;;5056385;28;20466;-77
2024/02/19 04:40:40;;;;;;;22.52;5.18;;;9.60;82.00;;;;;;5055597;28;20377;-77
2024/02/19 04:43:06;;;;;;;20.20;4.50;;;9.60;82.30;;;;;;5057870;28;20389;-77
2024/02/19 04:45:31;;;;;;;15.10;4.50;;;9.60;83.30;;;;;;5057718;28;20385;-76
2024/02/19 04:47:57;;;;;;;23.83;4.80;;;9.70;83.30;;;;;;5057060;28;20391;-77
2024/02/19 04:50:23;;;;;;;25.40;5.30;;;9.80;82.70;;;;;;5056399;28;20417;-78
2024/02/19 04:52:48;;;;;;;20.63;4.90;;;9.80;83.10;;;;;;5057432;28;20393;-76
2024/02/19 04:55:14;;;;;;;21.85;5.15;;;9.80;83.50;;;;;;5057908;28;20401;-74
2024/02/19 04:57:39;;;;;;;22.20;5.57;;;9.70;84.60;;;;;;5059684;28;20418;-80
2024/02/19 05:00:05;;;;;;;26.48;5.60;;;9.80;85.10;;;;;;5058648;28;20381;-78
2024/02/19 05:02:31;;;;;;;20.70;5.23;;;9.80;84.20;;;;;;5059050;28;20396;-79
2024/02/19 05:04:57;;;;;;;21.00;5.43;;;9.80;83.30;;;;;;5056457;28;20868;-78
2024/02/19 05:07:22;;;;;;;25.17;6.13;;;9.80;84.20;;;;;;5055531;28;20389;-78
2024/02/19 05:09:48;;;;;;;26.70;6.17;;;9.70;85.20;;;;;;5056204;28;20413;-79
2024/02/19 05:12:13;;;;;;;26.67;5.70;;;9.70;85.50;;;;;;5054225;28;20841;-78
2024/02/19 05:14:39;;;;;;;24.35;5.70;;;9.70;86.50;;;;;;5055330;28;20413;-76
2024/02/19 05:17:04;;;;;;;20.70;5.20;;;9.70;86.30;;;;;;5054013;28;20438;-76
2024/02/19 05:19:30;;;;;;;20.02;5.28;;;9.70;86.10;;;;;;5057073;28;20404;-78
2024/02/19 05:21:55;;;;;;;27.25;5.10;;;9.70;86.70;;;;;;5057537;28;20476;-77
2024/02/19 05:24:21;;;;;;;28.93;6.10;;;9.70;85.80;;;;;;5055267;28;20895;-79
2024/02/19 05:26:46;;;;;;;31.97;6.40;;;9.80;84.30;;;;;;5070883;28;20393;-77
2024/02/19 05:29:12;;;;;;;24.00;5.83;;;9.80;83.90;;;;;;5055665;28;20423;-78
2024/02/19 05:31:38;;;;;;;26.03;6.13;;;9.70;84.10;;;;;;5055861;28;20414;-78
2024/02/19 05:34:05;;;;;;;35.47;5.43;;;9.70;85.80;;;;;;5057754;28;20386;-78
2024/02/19 05:36:31;;;;;;;22.80;5.30;;;9.60;86.90;;;;;;5055315;28;20409;-76
2024/02/19 05:38:58;;;;;;;25.77;5.32;;;9.60;86.50;;;;;;5050904;28;20384;-77
2024/02/19 05:41:23;;;;;;;21.27;5.50;;;9.70;84.90;;;;;;5052842;28;20385;-78
2024/02/19 05:43:49;;;;;;;22.40;5.47;;;9.70;84.80;;;;;;5046225;28;20393;-77
2024/02/19 05:46:15;;;;;;;24.60;5.30;;;9.70;84.30;;;;;;5054626;28;20421;-73
2024/02/19 05:48:41;;;;;;;26.92;6.78;;;9.60;84.30;;;;;;5053167;28;20394;-75
2024/02/19 05:51:07;;;;;;;27.20;6.07;;;9.70;85.40;;;;;;5054261;28;20438;-75
2024/02/19 05:53:34;;;;;;;19.37;5.30;;;9.70;84.40;;;;;;5039931;28;20806;-73
2024/02/19 05:56:00;;;;;;;24.33;5.10;;;9.70;83.40;;;;;;5052543;28;20445;-74
2024/02/19 05:58:25;;;;;;;16.70;4.60;;;9.80;82.80;;;;;;5043043;28;20817;-74
2024/02/19 06:00:51;;;;;;;18.52;5.00;;;9.70;82.20;;;;;;5033084;28;20383;-73
2024/02/19 06:03:16;;;;;;;26.73;6.10;;;9.80;82.40;;;;;;5032481;28;20406;-75
2024/02/19 06:05:42;;;;;;;20.30;4.70;;;9.70;84.10;;;;;;5034236;28;20451;-77
2024/02/19 06:08:08;;;;;;;23.92;5.50;;;9.80;82.30;;;;;;5035585;28;20398;-72
2024/02/19 06:10:33;;;;;;;17.50;4.57;;;9.80;82.20;;;;;;5043070;28;20441;-73
2024/02/19 06:12:59;;;;;;;23.03;4.93;;;9.80;82.00;;;;;;5032593;28;20398;-74
2024/02/19 06:15:27;;;;;;;20.43;4.20;;;9.80;82.50;;;;;;5032957;28;20414;-74
2024/02/19 06:17:53;;;;;;;21.50;4.20;;;9.80;82.30;;;;;;5035067;28;20909;-74
2024/02/19 06:20:18;;;;;;;20.02;4.55;;;9.80;82.70;;;;;;5033891;28;20393;-74
2024/02/19 06:22:44;;;;;;;20.80;4.00;;;9.80;83.20;;;;;;5032151;28;20383;-73
2024/02/19 06:25:11;;;;;;;19.52;4.55;;;9.80;84.00;;;;;;5047308;28;20418;-73
2024/02/19 06:27:36;;;;;;;18.90;4.30;;;9.80;84.40;;;;;;5052546;28;20438;-75
2024/02/19 06:30:03;;;;;;;21.55;4.47;;;9.80;84.90;;;;;;5035202;28;20406;-75
2024/02/19 06:32:28;;;;;;;23.35;5.38;;;9.80;84.90;;;;;;5033586;28;20391;-77
2024/02/19 06:34:54;;;;;;;20.90;4.60;;;9.80;85.50;;;;;;5042871;28;20814;-79
2024/02/19 06:37:19;;;;;;;18.73;4.47;;;9.80;87.70;;;;;;5054396;28;20382;-77
2024/02/19 06:39:45;;;;;;;16.27;4.60;;;9.80;88.20;;;;;;5054694;28;20461;-78
2024/02/19 06:42:10;;;;;;;15.90;4.47;;;9.80;88.80;;;;;;5053887;28;20809;-75
2024/02/19 06:44:36;;;;;;;20.93;4.40;;;9.80;88.50;;;;;;5067529;28;20407;-77
2024/02/19 06:47:02;;;;;;;18.60;4.23;;;9.80;88.80;;;;;;5053901;28;20461;-77
2024/02/19 06:49:27;;;;;;;16.20;4.40;;;9.80;87.40;;;;;;5054169;28;20389;-77
2024/02/19 06:51:53;;;;;;;17.17;4.13;;;9.70;88.20;;;;;;5053793;28;20923;-77
2024/02/19 06:54:19;;;;;;;17.15;3.60;;;9.80;88.20;;;;;;5052324;28;20389;-76
2024/02/19 06:56:45;;;;;;;23.80;5.43;;;9.80;87.80;;;;;;5053089;28;20464;-75
2024/02/19 06:59:11;;;;;;;22.20;3.85;;;9.70;88.50;;;;;;5053891;28;20393;-79
2024/02/19 07:01:38;;;;;;;23.80;5.40;;;9.80;88.00;;;;;;5053047;28;20385;-78
2024/02/19 07:04:05;;;;;;;20.42;4.65;;;9.70;88.40;;;;;;5053158;28;20440;-76
2024/02/19 07:06:31;;;;;;;21.25;5.20;;;9.80;87.40;;;;;;5055362;28;20476;-76
2024/02/19 07:08:57;;;;;;;16.75;4.22;;;9.80;88.70;;;;;;5055797;28;20413;-76
2024/02/19 07:11:22;;;;;;;16.70;4.60;;;9.80;87.20;;;;;;5052857;28;20839;-75
2024/02/19 07:13:51;;;;;;;24.67;5.35;;;9.90;85.60;;;;;;5053976;28;20476;-77
2024/02/19 07:16:17;;;;;;;18.10;4.95;;;9.90;86.10;;;;;;5052581;28;20401;-76
2024/02/19 07:18:42;;;;;;;17.10;4.65;;;9.80;87.30;;;;;;5053147;28;20374;-76
2024/02/19 07:21:08;;;;;;;17.25;4.38;;;9.80;88.30;;;;;;5052267;28;20405;-76
2024/02/19 07:23:33;;;;;;;17.23;4.38;;;9.80;88.90;;;;;;5054220;28;20393;-77
2024/02/19 07:25:59;;;;;;;18.60;4.20;;;9.80;89.40;;;;;;5052499;28;20400;-75
2024/02/19 07:28:24;;;;;;;14.37;4.33;;;10.10;83.90;;;;;;5053157;28;20385;-76
2024/02/19 07:30:50;;;;;;;23.20;5.17;;;10.40;80.10;;;;;;5053071;28;20408;-78
2024/02/19 07:33:16;;;;;;;21.90;4.80;;;10.30;82.00;;;;;;5052841;28;20475;-78
2024/02/19 07:35:41;;;;;;;17.90;4.77;;;10.10;83.70;;;;;;5050903;28;20405;-76
2024/02/19 07:38:07;;;;;;;18.53;4.90;;;10.00;86.20;;;;;;5052308;28;20388;-76
2024/02/19 07:40:32;;;;;;;21.88;5.00;;;10.10;85.90;;;;;;5052025;28;20373;-77
2024/02/19 07:42:58;;;;;;;16.02;4.85;;;10.10;84.90;;;;;;5051560;28;20389;-77
2024/02/19 07:45:23;;;;;;;18.35;4.80;;;10.10;84.30;;;;;;5052149;28;20757;-77
2024/02/19 07:47:49;;;;;;;24.70;5.87;;;10.20;81.30;;;;;;5054739;28;20417;-77
2024/02/19 07:50:14;;;;;;;17.70;4.90;;;10.20;82.60;;;;;;5054600;28;20412;-76
2024/02/19 07:52:43;;;;;;;19.10;5.43;;;10.30;80.50;;;;;;5056872;28;20391;-76
2024/02/19 07:55:08;;;;;;;15.32;4.90;;;10.40;79.40;;;;;;5051797;28;20579;-76
2024/02/19 07:57:34;;;;;;;21.63;5.78;;;10.30;81.60;;;;;;5052327;28;20378;-74
2024/02/19 08:00:00;;;;;;;21.80;6.25;;;10.30;82.10;;;;;;5055549;28;20377;-76
2024/02/19 08:02:25;;;;;;;20.73;6.20;;;10.20;84.00;;;;;;5054182;28;20438;-77
2024/02/19 08:04:51;;;;;;;30.88;6.15;;;10.20;83.30;;;;;;5052009;28;20389;-77
2024/02/19 08:07:16;;;;;;;20.83;6.07;;;10.30;84.10;;;;;;5053681;28;20458;-77
2024/02/19 08:09:43;;;;;;;21.83;5.37;;;10.20;83.00;;;;;;5054135;28;20382;-78
2024/02/19 08:12:08;;;;;;;21.60;5.72;;;10.30;84.70;;;;;;5055859;28;20387;-77
2024/02/19 08:14:35;;;;;;;27.90;5.80;;;10.40;83.60;;;;;;5056292;28;20425;-77
2024/02/19 08:17:01;;;;;;;19.05;5.57;;;10.50;81.10;;;;;;5054175;28;20404;-79
2024/02/19 08:19:27;;;;;;;21.70;6.25;;;10.50;80.60;;;;;;5052601;28;20381;-77
2024/02/19 08:21:53;;;;;;;25.45;6.40;;;10.60;80.80;;;;;;5054375;28;20418;-77
2024/02/19 08:24:19;;;;;;;18.90;6.03;;;10.70;79.50;;;;;;5054021;28;20382;-77
2024/02/19 08:26:44;;;;;;;22.30;6.13;;;10.80;78.80;;;;;;5056405;28;20390;-75
2024/02/19 08:29:10;;;;;;;15.87;5.40;;;10.80;77.80;;;;;;5058864;28;20396;-76
2024/02/19 08:31:36;;;;;;;20.25;5.90;;;10.90;76.30;;;;;;5059892;28;20390;-75
2024/02/19 08:34:01;;;;;;;19.93;6.73;;;11.10;70.60;;;;;;5057960;28;20377;-76
2024/02/19 08:36:27;;;;;;;19.77;6.30;;;11.20;70.30;;;;;;5059944;28;20919;-77
2024/02/19 08:38:53;;;;;;;18.00;5.00;;;11.40;67.30;;;;;;5063314;28;20484;-75
2024/02/19 08:41:21;;;;;;;14.88;5.10;;;11.50;67.80;;;;;;5061579;28;20385;-76
2024/02/19 08:43:47;;;;;;;20.75;4.82;;;11.40;65.40;;;;;;5060212;28;20377;-76
2024/02/19 08:46:16;;;;;;;21.87;6.00;;;11.60;62.80;;;;;;5059936;28;20440;-78
2024/02/19 08:48:42;;;;;;;20.15;4.50;;;11.50;65.50;;;;;;5057081;28;20422;-78
2024/02/19 08:51:08;;;;;;;15.20;5.20;;;11.50;62.90;;;;;;5057616;28;20385;-77
2024/02/19 08:53:34;;;;;;;20.48;5.90;;;11.50;63.30;;;;;;5056586;28;21152;-77
2024/02/19 08:56:00;;;;;;;16.75;4.93;;;11.40;64.40;;;;;;5056705;28;21075;-77
2024/02/19 08:58:25;;;;;;;18.23;5.10;;;11.40;64.50;;;;;;5056755;28;20385;-77
2024/02/19 09:00:51;;;;;;;24.27;5.70;;;11.50;63.40;;;;;;5056144;28;20408;-77
2024/02/19 09:03:17;;;;;;;27.20;6.20;;;11.50;61.80;;;;;;5056272;28;20468;-77
2024/02/19 09:05:43;;;;;;;26.73;5.93;;;11.50;63.00;;;;;;5057334;28;20395;-77
2024/02/19 09:08:10;;;;;;;17.97;5.97;;;11.60;61.90;;;;;;5055536;28;20405;-75
2024/02/19 09:10:36;;;;;;;25.55;6.50;;;11.60;62.20;;;;;;5054948;28;20392;-77
2024/02/19 09:13:02;;;;;;;20.20;5.63;;;11.80;61.40;;;;;;5056401;28;20449;-79
2024/02/19 09:15:27;;;;;;;24.35;6.07;;;11.90;59.50;;;;;;5054912;28;20492;-77
2024/02/19 09:17:53;;;;;;;22.45;6.47;;;11.90;60.70;;;;;;5055788;28;20435;-77
2024/02/19 09:20:19;;;;;;;21.67;6.35;;;12.00;61.40;;;;;;5056299;28;20425;-76
2024/02/19 09:22:44;;;;;;;16.80;6.27;;;12.20;57.20;;;;;;5056009;28;20722;-77
2024/02/19 09:25:11;;;;;;;26.20;6.50;;;12.40;59.30;;;;;;5055538;28;20725;-77
2024/02/19 09:27:37;;;;;;;21.38;6.10;;;12.40;58.10;;;;;;5061051;28;20385;-75
2024/02/19 09:30:03;;;;;;;19.73;6.50;;;12.60;56.80;;;;;;5062767;28;20395;-75
2024/02/19 09:32:29;;;;;;;17.17;6.60;;;12.70;55.60;;;;;;5062597;28;20385;-77
2024/02/19 09:34:55;;;;;;;21.43;5.53;;;12.70;55.00;;;;;;5061339;28;20405;-76
2024/02/19 09:37:24;;;;;;;22.73;6.30;;;12.70;54.10;;;;;;5057902;28;20439;-75
2024/02/19 09:39:57;;;;;;;25.90;6.50;;;12.70;55.00;;;;;;5058985;28;20476;-76
2024/02/19 09:42:22;;;;;;;19.13;6.60;;;12.80;53.60;;;;;;5058603;28;20875;-76
2024/02/19 09:44:48;;;;;;;24.50;7.53;;;12.80;55.00;;;;;;5060331;28;20400;-76
2024/02/19 09:47:17;;;;;;;25.20;7.30;;;12.80;55.00;;;;;;5058130;28;20385;-77
2024/02/19 09:49:43;;;;;;;24.83;7.97;;;13.10;53.40;;;;;;5056715;28;20421;-77
2024/02/19 09:52:11;;;;;;;26.63;7.70;;;13.20;52.80;;;;;;5071497;28;20389;-78
2024/02/19 09:54:37;;;;;;;22.30;8.60;;;13.30;52.00;;;;;;5054892;28;20419;-78
2024/02/19 09:57:09;;;;;;;19.98;7.70;;;13.30;52.60;;;;;;5054548;28;20413;-77
2024/02/19 09:59:36;;;;;;;27.08;7.93;;;13.20;52.40;;;;;;5054580;28;20461;-77
2024/02/19 10:02:02;;;;;;;23.23;8.07;;;13.30;52.10;;;;;;5057573;28;20429;-77
2024/02/19 10:04:28;;;;;;;28.58;8.60;;;13.30;53.00;;;;;;5056441;28;20449;-77
2024/02/19 10:06:58;;;;;;;27.67;8.60;;;13.40;52.50;;;;;;5056081;28;20712;-76
2024/02/19 10:09:24;;;;;;;22.67;8.43;;;13.30;52.80;;;;;;5058977;28;20388;-75
2024/02/19 10:11:50;;;;;;;28.87;9.27;;;13.20;53.40;;;;;;5058008;28;20385;-75
2024/02/19 10:14:16;;;;;;;25.00;8.33;;;13.20;53.40;;;;;;5059607;28;20446;-77
2024/02/19 10:16:51;;;;;;;24.83;8.00;;;13.10;54.30;;;;;;5076651;28;20409;-76
2024/02/19 10:19:17;;;;;;;21.07;7.70;;;13.10;54.50;;;;;;5055961;28;20388;-77
2024/02/19 10:21:48;;;;;;;27.90;8.57;;;12.90;54.70;;;;;;5057440;28;20397;-77
2024/02/19 10:24:15;;;;;;;22.95;8.27;;;12.80;56.70;;;;;;5056132;28;20378;-76
2024/02/19 10:26:40;;;;;;;25.67;8.23;;;12.80;56.30;;;;;;5055585;28;20443;-75
2024/02/19 10:29:07;;;;;;;23.13;8.27;;;12.80;56.50;;;;;;5055714;28;20392;-75
2024/02/19 10:31:33;;;;;;;33.38;8.57;;;12.90;56.40;;;;;;5055717;28;20409;-77
2024/02/19 10:33:59;;;;;;;30.13;8.55;;;13.00;56.30;;;;;;5054848;28;20389;-77
2024/02/19 10:36:25;;;;;;;25.70;8.63;;;13.10;55.60;;;;;;5053486;28;20500;-75
2024/02/19 10:38:51;;;;;;;27.42;8.82;;;13.20;55.60;;;;;;5054132;28;20378;-76
2024/02/19 10:41:20;;;;;;;23.15;8.70;;;13.20;55.60;;;;;;5052279;28;20438;-75
2024/02/19 10:43:46;;;;;;;25.17;8.70;;;13.30;54.90;;;;;;5053444;28;20377;-75
2024/02/19 10:46:19;;;;;;;21.42;8.27;;;13.40;54.40;;;;;;5052628;28;20796;-75
2024/02/19 10:48:49;;;;;;;27.95;9.20;;;13.50;52.90;;;;;;5054518;28;20476;-76
2024/02/19 10:51:17;;;;;;;22.57;8.30;;;13.40;52.80;;;;;;5053242;28;20883;-75
2024/02/19 10:53:46;;;;;;;22.45;9.68;;;13.30;53.60;;;;;;5054069;28;20391;-76
2024/02/19 10:56:16;;;;;;;24.77;9.07;;;13.20;55.00;;;;;;5051757;28;20408;-75
2024/02/19 10:58:55;;;;;;;19.10;8.45;;;13.10;54.30;;;;;;5053951;28;20404;-75
2024/02/19 11:01:22;;;;;;;24.73;8.50;;;13.00;56.30;;;;;;5052356;28;20480;-76
2024/02/19 11:03:48;;;;;;;24.50;8.98;;;12.90;56.80;;;;;;5051386;28;20589;-75
2024/02/19 11:06:14;;;;;;;22.80;8.60;;;12.80;57.30;;;;;;5050876;28;20458;-77
2024/02/19 11:08:50;;;;;;;24.77;8.77;;;12.70;58.80;;;;;;5051268;28;20380;-75
2024/02/19 11:11:18;;;;;;;27.33;8.68;;;12.60;59.50;;;;;;5052118;28;20401;-75
2024/02/19 11:13:48;;;;;;;19.92;9.98;;;12.60;61.30;;;;;;5051890;28;20427;-75
2024/02/19 11:16:20;;;;;;;27.27;9.05;;;12.70;59.90;;;;;;5050887;28;20489;-75
2024/02/19 11:18:46;;;;;;;25.90;9.43;;;12.80;59.90;;;;;;5051420;28;20377;-75
2024/02/19 11:21:12;;;;;;;25.45;8.98;;;13.10;57.70;;;;;;5051150;28;20401;-76
2024/02/19 11:23:38;;;;;;;18.57;8.20;;;13.20;56.30;;;;;;5051861;28;20381;-75
2024/02/19 11:26:04;;;;;;;18.60;8.17;;;13.20;55.20;;;;;;5051196;28;20443;-75
2024/02/19 11:28:33;;;;;;;28.17;9.60;;;13.20;54.10;;;;;;5051274;28;20390;-75
2024/02/19 11:31:03;;;;;;;24.40;9.90;;;13.10;56.30;;;;;;5051500;28;20547;-75
2024/02/19 11:33:29;;;;;;;29.95;9.20;;;13.20;55.80;;;;;;5051100;28;20396;-75
2024/02/19 11:35:57;;;;;;;25.25;9.70;;;13.20;54.30;;;;;;5050622;28;20488;-76
2024/02/19 11:38:29;;;;;;;26.70;9.57;;;13.20;53.50;;;;;;5051232;28;20382;-75
2024/02/19 11:40:57;;;;;;;27.13;9.60;;;13.00;54.80;;;;;;5052491;28;20392;-76
2024/02/19 11:43:25;;;;;;;21.40;9.27;;;12.90;54.40;;;;;;5051902;28;20385;-75
2024/02/19 11:45:52;;;;;;;22.42;9.30;;;12.90;55.20;;;;;;5052131;28;20530;-75
2024/02/19 11:48:18;;;;;;;30.20;9.30;;;12.90;55.70;;;;;;5052439;28;20408;-75
2024/02/19 11:50:44;;;;;;;24.48;8.85;;;13.00;54.40;;;;;;5052178;28;20899;-76
2024/02/19 11:53:10;;;;;;;24.58;8.90;;;13.10;53.40;;;;;;5051749;28;20420;-75
2024/02/19 11:55:38;;;;;;;16.80;8.18;;;13.20;52.30;;;;;;5051694;28;20397;-76
2024/02/19 11:58:07;;;;;;;26.05;9.40;;;13.20;52.00;;;;;;5052388;28;20482;-75
2024/02/19 12:00:33;;;;;;;25.52;8.57;;;13.10;52.40;;;;;;5051548;28;20540;-76
2024/02/19 12:02:59;;;;;;;23.50;8.10;;;13.10;51.80;;;;;;5051367;28;20406;-77
2024/02/19 12:05:25;;;;;;;21.00;8.85;;;12.90;53.70;;;;;;5050758;28;20399;-76
2024/02/19 12:07:51;;;;;;;20.88;8.80;;;12.80;54.80;;;;;;5051085;28;20455;-75
2024/02/19 12:10:17;;;;;;;26.35;9.40;;;12.80;55.80;;;;;;5052079;28;20389;-75
2024/02/19 12:12:43;;;;;;;26.27;9.50;;;12.80;55.80;;;;;;5057517;28;20503;-75
2024/02/19 12:15:18;;;;;;;21.25;9.55;;;12.80;55.20;;;;;;5056728;28;20393;-75
2024/02/19 12:17:44;;;;;;;23.48;9.43;;;12.80;55.70;;;;;;5054737;28;20387;-76
2024/02/19 12:20:10;;;;;;;24.00;9.48;;;12.70;56.90;;;;;;5054510;28;20377;-76
2024/02/19 12:22:41;;;;;;;20.73;9.20;;;12.80;57.50;;;;;;5054775;28;20804;-76
2024/02/19 12:25:07;;;;;;;16.88;8.10;;;13.00;57.40;;;;;;5054341;28;20392;-78
2024/02/19 12:27:34;;;;;;;22.85;8.82;;;13.00;55.80;;;;;;5054500;28;20737;-75
2024/02/19 12:30:00;;;;;;;20.27;8.88;;;12.90;56.50;;;;;;5055477;28;20393;-75
2024/02/19 12:32:26;;;;;;;18.92;8.70;;;12.80;57.30;;;;;;5054182;28;20381;-76
2024/02/19 12:34:53;;;;;;;20.77;8.90;;;12.80;57.70;;;;;;5054143;28;20461;-76
2024/02/19 12:37:19;;;;;;;18.58;7.82;;;12.90;56.30;;;;;;5054184;28;20416;-77